createdAt,value
2022-08-04T00:01:46.266Z,66.46
2022-08-04T00:04:20.182Z,58.36
2022-08-04T00:06:54.035Z,53.43
2022-08-04T00:09:31.385Z,54.64
2022-08-04T00:12:02.727Z,56.04
2022-08-04T00:14:36.017Z,56.87
2022-08-04T00:17:07.165Z,57.88
2022-08-04T00:19:45.510Z,58.45
2022-08-04T00:22:14.823Z,58.87
2022-08-04T00:24:44.893Z,59.47
2022-08-04T00:27:13.604Z,60.16
2022-08-04T00:29:42.163Z,60.79
2022-08-04T00:32:10.348Z,61.23
2022-08-04T00:34:39.394Z,61.44
2022-08-04T00:37:08.140Z,65.62
2022-08-04T00:39:36.948Z,60.45
2022-08-04T00:42:26.892Z,53.92
2022-08-04T00:45:25.991Z,54.43
2022-08-04T00:47:54.062Z,55.80
2022-08-04T00:50:33.192Z,57.18
2022-08-04T00:53:29.527Z,58.11
2022-08-04T00:56:33.044Z,58.63
2022-08-04T00:59:11.443Z,59.44
2022-08-04T01:01:53.003Z,60.59
2022-08-04T01:05:05.342Z,60.80
2022-08-04T01:07:51.945Z,61.15
2022-08-04T01:10:38.450Z,61.38
2022-08-04T01:13:26.695Z,66.86
2022-08-04T01:16:02.548Z,58.73
2022-08-04T01:18:52.030Z,53.83
2022-08-04T01:21:42.006Z,55.29
2022-08-04T01:24:25.232Z,56.99
2022-08-04T01:27:04.150Z,58.78
2022-08-04T01:29:51.435Z,59.82
2022-08-04T01:32:34.760Z,60.61
2022-08-04T01:35:22.049Z,61.30
2022-08-04T01:38:18.176Z,61.59
2022-08-04T01:40:54.362Z,66.47
2022-08-04T01:43:24.200Z,59.62
2022-08-04T01:45:58.658Z,54.51
2022-08-04T01:48:28.265Z,55.35
2022-08-04T01:51:05.144Z,57.30
2022-08-04T01:53:36.132Z,58.38
2022-08-04T01:56:07.642Z,59.77
2022-08-04T01:58:37.614Z,60.58
2022-08-04T02:01:09.119Z,61.77
2022-08-04T02:04:21.183Z,65.71
2022-08-04T02:06:47.126Z,58.58
2022-08-04T02:09:54.214Z,54.06
2022-08-04T02:12:32.629Z,55.76
2022-08-04T02:15:08.484Z,57.72
2022-08-04T02:18:05.941Z,59.03
2022-08-04T02:20:38.157Z,60.08
2022-08-04T02:23:11.198Z,60.80
2022-08-04T02:25:54.323Z,61.88
2022-08-04T02:28:36.168Z,65.83
2022-08-04T02:31:06.952Z,59.14
2022-08-04T02:33:59.807Z,54.76
2022-08-04T02:36:35.149Z,56.10
2022-08-04T02:39:05.942Z,58.26
2022-08-04T02:41:35.798Z,59.85
2022-08-04T02:44:10.371Z,60.90
2022-08-04T02:46:39.679Z,61.63
2022-08-04T02:49:11.683Z,64.72
2022-08-04T02:51:45.900Z,60.33
2022-08-04T02:54:30.498Z,55.01
2022-08-04T02:57:04.609Z,55.83
2022-08-04T02:59:53.532Z,57.86
2022-08-04T03:02:52.734Z,59.21
2022-08-04T03:05:28.383Z,60.31
2022-08-04T03:08:14.785Z,61.59
2022-08-04T03:10:48.999Z,65.64
2022-08-04T03:13:28.187Z,59.63
2022-08-04T03:16:17.552Z,54.51
2022-08-04T03:18:51.819Z,56.28
2022-08-04T03:21:54.155Z,58.34
2022-08-04T03:24:25.134Z,60.03
2022-08-04T03:27:02.248Z,61.17
2022-08-04T03:29:38.377Z,65.20
2022-08-04T03:32:12.287Z,60.73
2022-08-04T03:35:22.905Z,54.23
2022-08-04T03:38:25.332Z,55.59
2022-08-04T03:41:11.529Z,57.78
2022-08-04T03:43:58.000Z,59.14
2022-08-04T03:46:46.483Z,60.03
2022-08-04T03:50:04.833Z,61.23
2022-08-04T03:53:10.000Z,65.76
2022-08-04T03:55:47.771Z,57.47
2022-08-04T03:58:37.039Z,54.90
2022-08-04T04:01:23.646Z,56.95
2022-08-04T04:03:54.382Z,58.84
2022-08-04T04:06:28.698Z,60.28
2022-08-04T04:09:16.073Z,61.41
2022-08-04T04:12:22.235Z,65.48
2022-08-04T04:15:21.441Z,58.63
2022-08-04T04:18:10.963Z,54.97
2022-08-04T04:20:57.569Z,56.82
2022-08-04T04:24:12.157Z,58.71
2022-08-04T04:26:55.359Z,60.18
2022-08-04T04:29:45.240Z,61.29
2022-08-04T04:32:41.165Z,65.70
2022-08-04T04:35:47.839Z,58.58
2022-08-04T04:38:30.966Z,55.09
2022-08-04T04:41:17.160Z,57.05
2022-08-04T04:44:00.236Z,58.87
2022-08-04T04:46:51.090Z,60.30
2022-08-04T04:49:41.283Z,60.98
2022-08-04T04:52:12.221Z,65.78
2022-08-04T04:54:52.579Z,60.13
2022-08-04T04:57:53.524Z,54.58
2022-08-04T05:00:14.031Z,56.17
2022-08-04T05:03:09.310Z,57.65
2022-08-04T05:05:55.626Z,58.85
2022-08-04T05:08:44.454Z,60.02
2022-08-04T05:11:14.396Z,61.34
2022-08-04T05:14:37.121Z,65.10
2022-08-04T05:16:51.603Z,59.07
2022-08-04T05:19:28.787Z,53.61
2022-08-04T05:22:01.980Z,55.32
2022-08-04T05:24:35.291Z,57.14
2022-08-04T05:27:10.514Z,58.50
2022-08-04T05:29:50.310Z,59.23
2022-08-04T05:32:24.196Z,60.27
2022-08-04T05:35:11.900Z,60.69
2022-08-04T05:37:44.477Z,65.40
2022-08-04T05:40:14.880Z,60.06
2022-08-04T05:42:43.281Z,53.79
2022-08-04T05:45:13.605Z,54.34
2022-08-04T05:47:43.213Z,55.97
2022-08-04T05:50:12.068Z,57.66
2022-08-04T05:52:42.066Z,58.62
2022-08-04T05:55:12.895Z,59.37
2022-08-04T05:58:02.491Z,59.87
2022-08-04T06:00:41.142Z,60.77
2022-08-04T06:03:12.222Z,61.01
2022-08-04T06:05:43.644Z,65.86
2022-08-04T06:08:13.912Z,61.59
2022-08-04T06:10:46.658Z,54.83
2022-08-04T06:13:47.548Z,54.35
2022-08-04T06:16:17.787Z,55.36
2022-08-04T06:20:00.575Z,56.97
2022-08-04T06:21:43.244Z,57.69
2022-08-04T06:24:15.614Z,58.88
2022-08-04T06:26:46.144Z,59.35
2022-08-04T06:29:23.943Z,60.00
2022-08-04T06:32:28.332Z,60.50
2022-08-04T06:34:48.303Z,60.31
2022-08-04T06:37:40.909Z,60.71
2022-08-04T06:40:29.613Z,65.52
2022-08-04T06:42:58.850Z,57.75
2022-08-04T06:45:28.251Z,54.25
2022-08-04T06:47:57.582Z,54.86
2022-08-04T06:51:25.045Z,55.72
2022-08-04T06:53:15.272Z,56.28
2022-08-04T06:55:46.035Z,57.43
2022-08-04T06:58:16.770Z,57.96
2022-08-04T07:00:47.071Z,58.53
2022-08-04T07:03:17.519Z,58.75
2022-08-04T07:05:48.288Z,59.25
2022-08-04T07:08:17.308Z,59.54
2022-08-04T07:10:46.505Z,59.75
2022-08-04T07:13:16.154Z,59.83
2022-08-04T07:15:46.275Z,59.97
2022-08-04T07:18:14.554Z,60.50
2022-08-04T07:20:44.670Z,61.06
2022-08-04T07:23:17.934Z,65.31
2022-08-04T07:26:12.350Z,59.45
2022-08-04T07:28:42.281Z,51.97
2022-08-04T07:31:33.707Z,52.56
2022-08-04T07:34:21.409Z,52.76
2022-08-04T07:36:55.602Z,53.87
2022-08-04T07:39:28.049Z,54.46
2022-08-04T07:42:02.634Z,55.50
2022-08-04T07:44:32.852Z,55.88
2022-08-04T07:47:03.074Z,56.56
2022-08-04T07:49:54.669Z,57.27
2022-08-04T07:52:21.136Z,56.98
2022-08-04T07:54:51.762Z,57.84
2022-08-04T07:57:40.507Z,57.25
2022-08-04T08:00:11.621Z,57.36
2022-08-04T08:02:40.252Z,57.82
2022-08-04T08:05:14.409Z,58.48
2022-08-04T08:07:50.812Z,58.81
2022-08-04T08:10:24.504Z,58.73
2022-08-04T08:12:54.157Z,58.83
2022-08-04T08:15:23.338Z,58.42
2022-08-04T08:17:59.706Z,58.61
2022-08-04T08:20:31.473Z,58.72
2022-08-04T08:23:01.967Z,58.26
2022-08-04T08:25:32.629Z,58.12
2022-08-04T08:28:04.382Z,58.21
2022-08-04T08:30:35.981Z,57.74
2022-08-04T08:33:08.336Z,58.01
2022-08-04T08:35:53.989Z,57.76
2022-08-04T08:39:01.773Z,57.48
2022-08-04T08:41:55.464Z,57.47
2022-08-04T08:44:49.751Z,57.16
2022-08-04T08:47:30.223Z,57.42
2022-08-04T08:50:27.483Z,56.30
2022-08-04T08:53:18.685Z,55.75
2022-08-04T08:55:58.939Z,56.35
2022-08-04T08:58:55.069Z,56.26
2022-08-04T09:01:49.649Z,55.59
2022-08-04T09:04:40.673Z,55.62
2022-08-04T09:07:33.536Z,55.53
2022-08-04T09:10:22.997Z,55.50
2022-08-04T09:13:06.948Z,54.64
2022-08-04T09:15:48.197Z,54.91
2022-08-04T09:18:27.250Z,54.61
2022-08-04T09:21:16.622Z,54.53
2022-08-04T09:24:35.906Z,54.29
2022-08-04T09:27:05.811Z,54.20
2022-08-04T09:29:48.862Z,54.26
2022-08-04T09:32:38.815Z,54.24
2022-08-04T09:35:46.724Z,54.21
2022-08-04T09:38:36.402Z,54.67
2022-08-04T09:41:23.468Z,54.17
2022-08-04T09:44:48.802Z,54.83
2022-08-04T09:47:20.384Z,54.11
2022-08-04T09:50:10.623Z,53.44
2022-08-04T09:52:59.668Z,52.86
2022-08-04T09:55:54.080Z,53.02
2022-08-04T09:58:34.487Z,52.75
2022-08-04T10:01:10.488Z,52.69
2022-08-04T10:03:45.684Z,52.87
2022-08-04T10:06:31.983Z,52.20
2022-08-04T10:09:17.155Z,52.17
2022-08-04T10:12:05.912Z,52.25
2022-08-04T10:15:06.854Z,52.26
2022-08-04T10:17:51.785Z,50.79
2022-08-04T10:20:44.305Z,51.67
2022-08-04T10:23:18.071Z,51.91
2022-08-04T10:26:07.207Z,49.54
2022-08-04T10:28:46.879Z,50.19
2022-08-04T10:31:23.142Z,49.58
2022-08-04T10:33:51.215Z,49.07
2022-08-04T10:36:24.225Z,48.69
2022-08-04T10:38:55.490Z,48.83
2022-08-04T10:41:33.246Z,48.55
2022-08-04T10:44:24.972Z,47.32
2022-08-04T10:47:10.043Z,47.84
2022-08-04T10:49:49.072Z,48.07
2022-08-04T10:52:38.651Z,47.04
2022-08-04T10:56:07.287Z,48.10
2022-08-04T10:58:47.084Z,47.66
2022-08-04T11:01:59.410Z,47.32
2022-08-04T11:04:44.464Z,47.15
2022-08-04T11:07:13.993Z,47.31
2022-08-04T11:09:44.398Z,47.58
2022-08-04T11:12:27.828Z,47.08
2022-08-04T11:15:20.591Z,47.96
2022-08-04T11:17:56.984Z,46.52
2022-08-04T11:20:35.966Z,45.70
2022-08-04T11:23:09.674Z,45.59
2022-08-04T11:25:48.344Z,44.63
2022-08-04T11:29:03.263Z,45.01
2022-08-04T11:31:36.051Z,45.72
2022-08-04T11:34:04.120Z,43.64
2022-08-04T11:36:40.078Z,42.97
2022-08-04T11:39:38.722Z,44.30
2022-08-04T11:42:18.588Z,44.46
2022-08-04T11:44:56.206Z,45.24
2022-08-04T11:47:24.872Z,44.83
2022-08-04T11:50:29.525Z,44.21
2022-08-04T11:52:58.522Z,43.93
2022-08-04T11:55:28.838Z,44.42
2022-08-04T11:57:57.422Z,44.33
2022-08-04T12:00:29.077Z,42.69
2022-08-04T12:03:25.518Z,43.54
2022-08-04T12:06:22.155Z,43.51
2022-08-04T12:09:21.462Z,43.24
2022-08-04T12:12:00.386Z,44.33
2022-08-04T12:14:41.668Z,43.31
2022-08-04T12:17:12.197Z,43.76
2022-08-04T12:20:03.458Z,40.31
2022-08-04T12:22:41.723Z,42.84
2022-08-04T12:25:14.900Z,42.32
2022-08-04T12:27:43.294Z,42.62
2022-08-04T12:30:58.827Z,42.26
2022-08-04T12:33:41.594Z,42.08
2022-08-04T12:36:21.358Z,42.32
2022-08-04T12:39:09.514Z,42.30
2022-08-04T12:41:42.620Z,41.99
2022-08-04T12:44:37.764Z,40.61
2022-08-04T12:47:27.213Z,40.86
2022-08-04T12:50:01.371Z,41.77
2022-08-04T12:53:03.909Z,40.16
2022-08-04T12:55:35.652Z,42.25
2022-08-04T12:58:43.069Z,41.63
2022-08-04T13:02:07.033Z,41.41
2022-08-04T13:04:13.644Z,39.87
2022-08-04T13:06:43.353Z,39.46
2022-08-04T13:09:18.513Z,40.45
2022-08-04T13:11:53.321Z,40.86
2022-08-04T13:14:27.978Z,41.87
2022-08-04T13:17:01.560Z,41.65
2022-08-04T13:19:31.482Z,41.29
2022-08-04T13:22:09.774Z,40.81
2022-08-04T13:24:56.529Z,40.81
2022-08-04T13:27:26.358Z,40.45
2022-08-04T13:29:57.737Z,40.05
2022-08-04T13:32:31.065Z,40.36
2022-08-04T13:35:02.067Z,39.81
2022-08-04T13:37:37.332Z,41.31
2022-08-04T13:40:09.434Z,40.90
2022-08-04T13:42:39.198Z,40.47
2022-08-04T13:45:09.086Z,40.66
2022-08-04T13:47:40.470Z,40.48
2022-08-04T13:50:14.459Z,40.30
2022-08-04T13:52:43.737Z,40.27
2022-08-04T13:55:33.658Z,40.29
2022-08-04T13:58:07.671Z,40.66
2022-08-04T14:01:11.376Z,39.17
2022-08-04T14:03:54.492Z,39.86
2022-08-04T14:06:36.532Z,39.80
2022-08-04T14:09:15.048Z,39.00
2022-08-04T14:12:10.103Z,38.67
2022-08-04T14:14:44.537Z,39.06
2022-08-04T14:17:32.955Z,38.88
2022-08-04T14:20:03.941Z,38.78
2022-08-04T14:22:35.686Z,38.70
2022-08-04T14:25:15.640Z,37.66
2022-08-04T14:27:47.929Z,38.08
2022-08-04T14:30:22.016Z,39.82
2022-08-04T14:32:58.995Z,38.75
2022-08-04T14:35:58.815Z,38.95
2022-08-04T14:38:56.513Z,38.84
2022-08-04T14:41:32.910Z,38.35
2022-08-04T14:44:03.650Z,38.61
2022-08-04T14:46:36.373Z,39.18
2022-08-04T14:49:10.869Z,40.60
2022-08-04T14:51:52.829Z,39.87
2022-08-04T14:54:32.967Z,39.20
2022-08-04T14:57:07.046Z,39.59
2022-08-04T15:00:01.273Z,40.09
2022-08-04T15:02:32.698Z,39.34
2022-08-04T15:05:59.808Z,39.75
2022-08-04T15:07:52.681Z,39.51
2022-08-04T15:10:21.060Z,40.98
2022-08-04T15:12:49.412Z,39.85
2022-08-04T15:15:35.900Z,39.79
2022-08-04T15:18:08.739Z,39.21
2022-08-04T15:20:39.156Z,39.95
2022-08-04T15:23:10.594Z,39.17
2022-08-04T15:25:49.491Z,40.16
2022-08-04T15:28:23.641Z,40.71
2022-08-04T15:30:54.485Z,40.65
2022-08-04T15:33:28.929Z,39.70
2022-08-04T15:36:11.817Z,40.29
2022-08-04T15:38:50.663Z,41.00
2022-08-04T15:41:54.847Z,40.68
2022-08-04T15:44:47.205Z,40.83
2022-08-04T15:47:16.308Z,41.99
2022-08-04T15:49:45.809Z,41.71
2022-08-04T15:52:18.292Z,42.14
2022-08-04T15:54:52.449Z,41.88
2022-08-04T15:57:59.788Z,41.51
2022-08-04T16:00:28.733Z,41.11
2022-08-04T16:02:56.952Z,40.29
2022-08-04T16:05:25.025Z,39.61
2022-08-04T16:08:01.391Z,39.57
2022-08-04T16:10:35.605Z,39.29
2022-08-04T16:13:15.281Z,39.85
2022-08-04T16:15:49.570Z,39.82
2022-08-04T16:18:26.389Z,38.33
2022-08-04T16:20:57.897Z,37.98
2022-08-04T16:23:52.986Z,38.58
2022-08-04T16:26:45.807Z,38.19
2022-08-04T16:29:23.691Z,38.73
2022-08-04T16:32:12.004Z,38.94
2022-08-04T16:34:54.354Z,39.07
2022-08-04T16:37:35.316Z,40.18
2022-08-04T16:40:35.770Z,40.35
2022-08-04T16:43:14.380Z,41.04
2022-08-04T16:45:43.935Z,40.06
2022-08-04T16:48:13.752Z,39.64
2022-08-04T16:50:50.935Z,39.49
2022-08-04T16:53:53.927Z,40.21
2022-08-04T16:56:11.343Z,40.15
2022-08-04T16:58:50.314Z,40.63
2022-08-04T17:01:33.700Z,42.36
2022-08-04T17:04:07.669Z,41.63
2022-08-04T17:06:38.794Z,41.76
2022-08-04T17:09:13.701Z,41.91
2022-08-04T17:11:44.548Z,42.54
2022-08-04T17:14:13.006Z,43.14
2022-08-04T17:16:43.405Z,44.38
2022-08-04T17:19:23.991Z,45.11
2022-08-04T17:22:05.947Z,45.15
2022-08-04T17:24:38.534Z,45.76
2022-08-04T17:28:08.571Z,46.37
2022-08-04T17:29:56.039Z,46.15
2022-08-04T17:32:24.523Z,47.30
2022-08-04T17:35:03.837Z,47.33
2022-08-04T17:37:37.861Z,48.12
2022-08-04T17:40:10.305Z,47.73
2022-08-04T17:42:40.553Z,47.64
2022-08-04T17:48:03.067Z,48.11
2022-08-04T17:50:35.900Z,48.80
2022-08-04T17:53:12.497Z,49.38
2022-08-04T17:55:49.949Z,49.29
2022-08-04T17:58:23.302Z,49.95
2022-08-04T18:01:24.068Z,49.99
2022-08-04T18:03:53.702Z,51.50
2022-08-04T18:06:23.425Z,52.32
2022-08-04T18:08:59.281Z,52.57
2022-08-04T18:11:58.144Z,53.15
2022-08-04T18:14:28.802Z,52.95
2022-08-04T18:18:21.551Z,52.59
2022-08-04T18:20:27.997Z,53.04
2022-08-04T18:22:56.171Z,53.29
2022-08-04T18:25:24.344Z,53.78
2022-08-04T18:28:17.344Z,54.44
2022-08-04T18:30:55.603Z,54.33
2022-08-04T18:36:34.781Z,54.71
2022-08-04T18:39:13.166Z,54.72
2022-08-04T18:42:01.571Z,55.50
2022-08-04T18:44:32.340Z,55.86
2022-08-04T18:47:19.675Z,55.82
2022-08-04T18:50:40.118Z,56.39
2022-08-04T18:52:42.037Z,56.37
2022-08-04T18:55:55.722Z,56.72
2022-08-04T18:58:07.015Z,56.91
2022-08-04T19:00:45.290Z,57.37
2022-08-04T19:03:16.346Z,57.03
2022-08-04T19:05:51.300Z,57.42
2022-08-04T19:11:38.689Z,58.83
2022-08-04T19:13:58.569Z,59.42
2022-08-04T19:16:29.001Z,59.42
2022-08-04T19:19:00.699Z,60.13
2022-08-04T19:22:00.393Z,60.09
2022-08-04T19:24:31.896Z,60.48
2022-08-04T19:27:06.502Z,60.04
2022-08-04T19:29:40.614Z,59.66
2022-08-04T19:32:14.620Z,59.03
2022-08-04T19:34:47.381Z,59.10
2022-08-04T19:37:58.258Z,60.08
2022-08-04T19:40:09.364Z,59.54
2022-08-04T19:42:38.496Z,60.04
2022-08-04T19:45:15.808Z,59.71
2022-08-04T19:48:16.012Z,59.56
2022-08-04T19:50:34.460Z,59.31
2022-08-04T19:53:19.061Z,58.97
2022-08-04T19:55:49.856Z,59.50
2022-08-04T19:58:26.322Z,59.78
2022-08-04T20:00:55.594Z,59.28
2022-08-04T20:04:10.442Z,59.70
2022-08-04T20:06:12.545Z,59.65
2022-08-04T20:11:28.862Z,59.51
2022-08-04T20:13:57.037Z,60.13
2022-08-04T20:16:29.373Z,59.86
2022-08-04T20:19:03.203Z,59.73
2022-08-04T20:21:36.514Z,60.55
2022-08-04T20:24:37.844Z,60.51
2022-08-04T20:27:15.096Z,60.53
2022-08-04T20:29:49.853Z,60.92
2022-08-04T20:32:24.959Z,61.02
2022-08-04T20:34:55.745Z,61.16
2022-08-04T20:37:55.444Z,60.94
2022-08-04T20:40:14.939Z,60.80
2022-08-04T20:42:45.015Z,61.04
2022-08-04T20:45:16.505Z,61.06
2022-08-04T20:47:50.250Z,61.56
2022-08-04T20:50:30.288Z,61.12
2022-08-04T20:52:59.360Z,61.12
2022-08-04T20:55:29.854Z,61.15
2022-08-04T20:58:03.412Z,60.72
2022-08-04T21:00:32.337Z,60.74
2022-08-04T21:03:00.660Z,60.80
2022-08-04T21:05:31.593Z,60.52
2022-08-04T21:08:00.183Z,60.21
2022-08-04T21:10:29.982Z,60.38
2022-08-04T21:12:58.162Z,60.40
2022-08-04T21:15:58.736Z,60.19
2022-08-04T21:18:17.016Z,60.09
2022-08-04T21:20:48.062Z,60.25
2022-08-04T21:23:16.768Z,60.80
2022-08-04T21:25:51.068Z,61.19
2022-08-04T21:28:20.214Z,61.16
2022-08-04T21:30:54.576Z,61.23
2022-08-04T21:33:49.626Z,61.17
2022-08-04T21:36:16.207Z,60.78
2022-08-04T21:39:03.620Z,60.94
2022-08-04T21:41:33.352Z,60.94
2022-08-04T21:44:02.600Z,61.18
2022-08-04T21:46:32.586Z,62.08
2022-08-04T21:49:01.346Z,64.32
2022-08-04T21:54:23.930Z,54.79
2022-08-04T21:56:52.374Z,53.51
2022-08-04T21:59:24.344Z,55.19
2022-08-04T22:02:01.233Z,56.37
2022-08-04T22:04:30.675Z,57.00
2022-08-04T22:07:02.943Z,57.61
2022-08-04T22:09:40.862Z,58.62
2022-08-04T22:12:22.062Z,58.90
2022-08-04T22:14:57.538Z,59.43
2022-08-04T22:17:35.028Z,59.92
2022-08-04T22:20:04.764Z,60.18
2022-08-04T22:22:37.738Z,60.50
2022-08-04T22:28:01.701Z,61.11
2022-08-04T22:30:36.991Z,60.99
2022-08-04T22:33:08.579Z,62.18
2022-08-04T22:35:49.192Z,62.09
2022-08-04T22:38:27.887Z,66.33
2022-08-04T22:41:05.007Z,61.18
2022-08-04T22:43:34.778Z,54.12
2022-08-04T22:46:12.094Z,54.04
2022-08-04T22:48:43.647Z,55.80
2022-08-04T22:51:13.171Z,57.19
2022-08-04T22:53:48.608Z,57.99
2022-08-04T22:56:38.619Z,58.87
2022-08-04T22:59:10.028Z,59.66
2022-08-04T23:02:00.172Z,60.12
2022-08-04T23:04:33.222Z,60.51
2022-08-04T23:07:09.036Z,60.97
2022-08-04T23:09:50.922Z,60.76
2022-08-04T23:12:26.137Z,60.42
2022-08-04T23:14:58.870Z,60.84
2022-08-04T23:17:28.682Z,60.85
2022-08-04T23:19:59.113Z,61.51
2022-08-04T23:22:41.965Z,61.74
2022-08-04T23:25:15.173Z,61.91
2022-08-04T23:27:51.170Z,66.19
2022-08-04T23:30:29.819Z,62.21
2022-08-04T23:32:58.827Z,54.10
2022-08-04T23:35:27.702Z,53.79
2022-08-04T23:37:58.084Z,55.10
2022-08-04T23:40:34.186Z,56.03
2022-08-04T23:43:17.410Z,56.74
2022-08-04T23:46:06.820Z,57.52
2022-08-04T23:48:38.981Z,58.22
2022-08-04T23:51:14.241Z,59.42
2022-08-04T23:53:45.597Z,59.77
2022-08-04T23:56:35.768Z,60.04
2022-08-04T23:59:17.878Z,60.25
